map of KEYF home
KEYF - Airport
Location
City:  Elizabethtown, North Carolina, United States
Name:Curtis L Brown Jr. Field
ICAO:KEYF
FAA LID:EYF

Details
Type:Airport (Airfield)
Use:Public/Civil
Latitude:3436'06"N (34.601804)
Longitude:7834'45"W (-78.579270)
Datum:WGS 1984
Elevation:132 ft (40 m)
Variation:9.13W (WMM2015 magnetic declination)
-0.05 annual change
Runways:1
Longest:5006 × 75 ft (1526 × 23 m), paved

Time
Time Zone:UTC-5 (DST-4)
Local Time:

Weather
METAR:KEYF 142300Z AUTO 05009KT 10SM OVC110 08/04 A3034 RMK AO2 T00850043

Related Locations
Nearby:
Farthest:MQZ: 11660 mi / 18766 km
Margaret River [Margaret River Airport], WA, AU

Find:

   beyond  
but within

Other Information
Maps:
NOTAMs:
Links:
Sources:

  
  • flag of United States
  • flag of North Carolina
  

Sectional Chart

Flight Planning
at skyvector.com

Satellite Image

Google Maps Satellite view

 

Copyright © 2004-2018 Karl L. Swartz. All rights reserved.
The Great Circle Mapper name and logo are trademarks of the Great Circle Mapper.
All other trademarks mentioned herein belong to their respective owners.
Please see credits for attibutions and further copyright information.

  Follow gcmap on Facebook Follow gcmap on Twitter Follow gcmap on Google+ GCmap on LinkedIn

hCard Microformat

Geo Microformat